N636CX KEMT-KSAN
Flight info
| Callsign | N636CX |
|---|---|
| Flight time | 0h 18m |
| Altitude | VFR |
| Route | UDD1 TRM PSP V388 RNDAL V363 POM |
| Aircraft | EXP/L-VGD/C |
Departure
| Time | 2026-05-06 01:28 |
|---|---|
| Airport | San Gabriel Valley Airport (KEMT) |
Arrival
| Time | 2026-05-06 01:46 |
|---|---|
| Airport | San Diego International Airport (KSAN) |
| Time | Latitude | Longitude | Altitude | Speed | Heading |
|---|---|---|---|---|---|
| 2026-05-06 01:24 | 34.08540 | -118.03467 | 298 ft | 0 kts | 123° |
| 2026-05-06 01:26 | 34.08554 | -118.03449 | 298 ft | 7 kts | 18° |
| 2026-05-06 01:26 | 34.08717 | -118.03358 | 300 ft | 41 kts | 24° |
| 2026-05-06 01:26 | 34.08977 | -118.03208 | 306 ft | 37 kts | 26° |
| 2026-05-06 01:26 | 34.09066 | -118.03160 | 308 ft | 2 kts | 8° |
| 2026-05-06 01:27 | 34.09069 | -118.03159 | 308 ft | 0 kts | 5° |
| 2026-05-06 01:27 | 34.09087 | -118.03204 | 306 ft | 13 kts | 251° |
| 2026-05-06 01:27 | 34.08863 | -118.03353 | 300 ft | 101 kts | 206° |
| 2026-05-06 01:27 | 34.07973 | -118.03827 | 565 ft | 155 kts | 195° |
| 2026-05-06 01:28 | 34.06860 | -118.03992 | 907 ft | 164 kts | 186° |
| 2026-05-06 01:28 | 34.05786 | -118.04581 | 1301 ft | 186 kts | 226° |
| 2026-05-06 01:28 | 34.04848 | -118.05795 | 1681 ft | 209 kts | 213° |
| 2026-05-06 01:28 | 34.03387 | -118.06149 | 2060 ft | 230 kts | 172° |
| 2026-05-06 01:29 | 34.01874 | -118.05218 | 2155 ft | 260 kts | 139° |
| 2026-05-06 01:29 | 34.00668 | -118.03500 | 2151 ft | 276 kts | 129° |
| 2026-05-06 01:29 | 33.99525 | -118.01651 | 2460 ft | 276 kts | 128° |
| 2026-05-06 01:29 | 33.98403 | -117.99873 | 3511 ft | 263 kts | 132° |
| 2026-05-06 01:30 | 33.96987 | -117.98361 | 3903 ft | 292 kts | 146° |
| 2026-05-06 01:30 | 33.95139 | -117.97033 | 3896 ft | 327 kts | 152° |
| 2026-05-06 01:30 | 33.93036 | -117.95647 | 3894 ft | 355 kts | 152° |
| 2026-05-06 01:30 | 33.90805 | -117.94193 | 3893 ft | 376 kts | 152° |
| 2026-05-06 01:31 | 33.88459 | -117.92669 | 3893 ft | 392 kts | 152° |
| 2026-05-06 01:31 | 33.86012 | -117.91080 | 3893 ft | 404 kts | 152° |
| 2026-05-06 01:31 | 33.83533 | -117.89476 | 4764 ft | 406 kts | 152° |
| 2026-05-06 01:31 | 33.81052 | -117.87868 | 5988 ft | 411 kts | 151° |
| 2026-05-06 01:32 | 33.78518 | -117.86227 | 7228 ft | 414 kts | 151° |
| 2026-05-06 01:32 | 33.76020 | -117.84609 | 8445 ft | 415 kts | 151° |
| 2026-05-06 01:32 | 33.73492 | -117.82975 | 9684 ft | 416 kts | 150° |
| 2026-05-06 01:32 | 33.70969 | -117.81344 | 10912 ft | 415 kts | 150° |
| 2026-05-06 01:33 | 33.68427 | -117.79701 | 11978 ft | 418 kts | 151° |
| 2026-05-06 01:33 | 33.65798 | -117.78013 | 12072 ft | 440 kts | 151° |
| 2026-05-06 01:33 | 33.63047 | -117.76311 | 11945 ft | 450 kts | 152° |
| 2026-05-06 01:33 | 33.60242 | -117.74547 | 11825 ft | 452 kts | 151° |
| 2026-05-06 01:34 | 33.57444 | -117.72755 | 11707 ft | 452 kts | 151° |
| 2026-05-06 01:34 | 33.54673 | -117.70976 | 11605 ft | 453 kts | 151° |
| 2026-05-06 01:34 | 33.51888 | -117.69186 | 11517 ft | 451 kts | 151° |
| 2026-05-06 01:34 | 33.49143 | -117.67421 | 11517 ft | 451 kts | 151° |
| 2026-05-06 01:35 | 33.46369 | -117.65640 | 11508 ft | 451 kts | 151° |
| 2026-05-06 01:35 | 33.43593 | -117.63857 | 11521 ft | 451 kts | 151° |
| 2026-05-06 01:35 | 33.40829 | -117.62091 | 10576 ft | 417 kts | 151° |
| 2026-05-06 01:35 | 33.38714 | -117.60719 | 9322 ft | 284 kts | 150° |
| 2026-05-06 01:36 | 33.37173 | -117.59718 | 8086 ft | 220 kts | 150° |
| 2026-05-06 01:36 | 33.35853 | -117.58874 | 6855 ft | 242 kts | 152° |
| 2026-05-06 01:36 | 33.34347 | -117.57916 | 6497 ft | 235 kts | 152° |
| 2026-05-06 01:36 | 33.32910 | -117.57003 | 6508 ft | 241 kts | 152° |
| 2026-05-06 01:37 | 33.31377 | -117.56029 | 6518 ft | 259 kts | 152° |
| 2026-05-06 01:37 | 33.29734 | -117.54983 | 6515 ft | 275 kts | 152° |
| 2026-05-06 01:37 | 33.28004 | -117.53878 | 6517 ft | 287 kts | 152° |
| 2026-05-06 01:37 | 33.26210 | -117.52733 | 6523 ft | 297 kts | 152° |
| 2026-05-06 01:38 | 33.24394 | -117.51571 | 6515 ft | 293 kts | 152° |
| 2026-05-06 01:38 | 33.22624 | -117.50439 | 6516 ft | 282 kts | 152° |
| 2026-05-06 01:38 | 33.20874 | -117.49322 | 6523 ft | 287 kts | 152° |
| 2026-05-06 01:38 | 33.19115 | -117.48202 | 6526 ft | 287 kts | 152° |
| 2026-05-06 01:39 | 33.17343 | -117.47073 | 6526 ft | 285 kts | 152° |
| 2026-05-06 01:39 | 33.15614 | -117.45931 | 6528 ft | 283 kts | 150° |
| 2026-05-06 01:39 | 33.13908 | -117.44779 | 6528 ft | 282 kts | 151° |
| 2026-05-06 01:39 | 33.12178 | -117.43660 | 6527 ft | 281 kts | 152° |
| 2026-05-06 01:40 | 33.10451 | -117.42557 | 6529 ft | 280 kts | 152° |
| 2026-05-06 01:40 | 33.08729 | -117.41464 | 6531 ft | 279 kts | 152° |
| 2026-05-06 01:40 | 33.07009 | -117.40370 | 6532 ft | 279 kts | 152° |
| 2026-05-06 01:40 | 33.05301 | -117.39285 | 6530 ft | 279 kts | 152° |
| 2026-05-06 01:41 | 33.03598 | -117.38203 | 6532 ft | 278 kts | 152° |
| 2026-05-06 01:41 | 33.00157 | -117.36021 | 6534 ft | 277 kts | 152° |
| 2026-05-06 01:41 | 32.98460 | -117.34945 | 6534 ft | 277 kts | 153° |
| 2026-05-06 01:42 | 32.96748 | -117.33861 | 6532 ft | 276 kts | 153° |
| 2026-05-06 01:42 | 32.95052 | -117.32787 | 6530 ft | 276 kts | 153° |
| 2026-05-06 01:42 | 32.93346 | -117.31707 | 6533 ft | 276 kts | 153° |
| 2026-05-06 01:42 | 32.91660 | -117.30640 | 6532 ft | 275 kts | 153° |
| 2026-05-06 01:43 | 32.89965 | -117.29570 | 6328 ft | 272 kts | 154° |
| 2026-05-06 01:43 | 32.88280 | -117.28571 | 6049 ft | 272 kts | 155° |
| 2026-05-06 01:43 | 32.86535 | -117.27593 | 5663 ft | 276 kts | 155° |
| 2026-05-06 01:43 | 32.84870 | -117.26485 | 5196 ft | 277 kts | 153° |
| 2026-05-06 01:44 | 32.83156 | -117.25401 | 4396 ft | 283 kts | 152° |
| 2026-05-06 01:44 | 32.81463 | -117.24311 | 3884 ft | 279 kts | 154° |
| 2026-05-06 01:44 | 32.79760 | -117.23302 | 3322 ft | 263 kts | 155° |
| 2026-05-06 01:44 | 32.78175 | -117.22395 | 2737 ft | 250 kts | 156° |
| 2026-05-06 01:45 | 32.76675 | -117.21463 | 2345 ft | 231 kts | 146° |
| 2026-05-06 01:45 | 32.75540 | -117.20240 | 1902 ft | 217 kts | 126° |
| 2026-05-06 01:45 | 32.74824 | -117.18780 | 1354 ft | 191 kts | 119° |
| 2026-05-06 01:45 | 32.74169 | -117.17522 | 805 ft | 167 kts | 153° |
| 2026-05-06 01:46 | 32.73228 | -117.17723 | 163 ft | 141 kts | 242° |
| 2026-05-06 01:46 | 32.73275 | -117.18674 | 17 ft | 103 kts | 287° |
| 2026-05-06 01:46 | 32.73417 | -117.19222 | 18 ft | 28 kts | 285° |
| 2026-05-06 01:46 | 32.73449 | -117.19424 | 18 ft | 21 kts | 257° |
| 2026-05-06 01:47 | 32.73408 | -117.19497 | 18 ft | 0 kts | 191° |
| 2026-05-06 01:49 | 32.73383 | -117.19495 | 18 ft | 7 kts | 136° |
| 2026-05-06 01:49 | 32.73348 | -117.19368 | 18 ft | 52 kts | 112° |
| 2026-05-06 01:50 | 32.73246 | -117.18984 | 17 ft | 15 kts | 311° |
| 2026-05-06 01:50 | 32.73244 | -117.18941 | 16 ft | 3 kts | 230° |
| 2026-05-06 01:50 | 32.73239 | -117.18938 | 16 ft | 2 kts | 36° |
| 2026-05-06 01:50 | 32.73227 | -117.18862 | 16 ft | 17 kts | 106° |
| 2026-05-06 01:51 | 32.73181 | -117.18682 | 15 ft | 25 kts | 107° |
| 2026-05-06 01:51 | 32.73210 | -117.18473 | 16 ft | 30 kts | 27° |
| 2026-05-06 01:51 | 32.73296 | -117.18267 | 18 ft | 33 kts | 104° |
| 2026-05-06 01:51 | 32.73257 | -117.18080 | 18 ft | 18 kts | 107° |
| 2026-05-06 01:52 | 32.73353 | -117.17956 | 20 ft | 27 kts | 31° |